Time;durP1;ratioP1;P1;durP2;ratioP2;P2;SDS_P1;SDS_P2;PMS_P1;PMS_P2;Temp;Humidity;BMP_temperature;BMP_pressure;BME280_temperature;BME280_humidity;BME280_pressure;Samples;Min_cycle;Max_cycle;Signal;HPM_P1;HPM_P2
2022/12/22 03:28:10;;;;;;;0.35;0.30;;;;;;;18.50;39.03;100069.09;16135304;19;131196;-53
2022/12/22 03:33:32;;;;;;;0.30;0.10;;;;;;;18.51;39.29;100067.13;16136454;19;130190;-53
2022/12/22 03:38:54;;;;;;;0.05;0.05;;;;;;;18.50;39.34;100068.25;16139540;19;129018;-54
2022/12/22 03:49:56;;;;;;;0.45;0.10;;;;;;;18.47;38.98;100069.63;16135817;19;129158;-52
2022/12/22 03:55:18;;;;;;;0.20;0.10;;;;;;;18.46;38.89;100074.31;16134414;19;129560;-53
2022/12/22 04:00:39;;;;;;;1.48;0.15;;;;;;;18.45;38.96;100061.59;16137701;19;131147;-54
2022/12/22 04:06:01;;;;;;;0.20;0.20;;;;;;;18.44;39.37;100071.00;16135010;19;129535;-55
2022/12/22 04:17:05;;;;;;;0.32;0.20;;;;;;;18.42;39.19;100070.41;16132577;19;129783;-56
2022/12/22 04:22:26;;;;;;;0.73;0.15;;;;;;;18.42;39.17;100073.19;16130594;19;129482;-54
2022/12/22 04:27:48;;;;;;;0.00;0.00;;;;;;;18.40;39.34;100071.78;16128288;19;130779;-56
2022/12/22 04:33:10;;;;;;;0.30;0.15;;;;;;;18.40;38.87;100061.53;16131526;19;129942;-55
2022/12/22 04:38:31;;;;;;;1.75;0.20;;;;;;;18.38;39.04;100072.00;16133283;19;133221;-55
2022/12/22 04:43:53;;;;;;;0.10;0.10;;;;;;;18.38;39.12;100083.09;16134539;19;129343;-52
2022/12/22 04:49:15;;;;;;;0.82;0.20;;;;;;;18.36;39.05;100093.59;16131710;19;129021;-55
2022/12/22 04:54:36;;;;;;;0.20;0.20;;;;;;;18.36;39.21;100093.59;16133762;19;129683;-57
2022/12/22 04:59:58;;;;;;;0.15;0.15;;;;;;;18.34;38.88;100093.00;16136914;19;129402;-55
2022/12/22 05:05:20;;;;;;;0.17;0.17;;;;;;;18.34;39.07;100095.78;16129968;19;129856;-55
2022/12/22 05:10:42;;;;;;;0.20;0.10;;;;;;;18.32;39.36;100100.78;16130306;19;129341;-54
2022/12/22 05:16:05;;;;;;;0.10;0.10;;;;;;;18.33;38.91;100094.13;16131928;19;129457;-54
2022/12/22 05:21:27;;;;;;;0.10;0.10;;;;;;;18.32;39.29;100092.47;16129677;19;129612;-53
2022/12/22 05:26:48;;;;;;;0.10;0.10;;;;;;;18.32;39.18;100098.00;16129192;19;129470;-54
2022/12/22 05:32:10;;;;;;;0.10;0.10;;;;;;;18.31;38.90;100115.72;16128433;19;129458;-55
2022/12/22 05:37:32;;;;;;;0.30;0.30;;;;;;;18.29;39.32;100118.72;16128133;19;129062;-52
2022/12/22 05:42:54;;;;;;;0.17;0.17;;;;;;;18.28;39.04;100136.44;16129493;19;129704;-53
2022/12/22 05:48:16;;;;;;;0.35;0.30;;;;;;;18.28;39.27;100138.38;16131354;19;129300;-54
2022/12/22 05:53:46;;;;;;;0.45;0.38;;;;;;;18.27;39.35;100153.31;16124911;19;129925;-51
2022/12/22 05:59:10;;;;;;;0.30;0.30;;;;;;;18.26;39.07;100168.25;16125510;19;130396;-57
2022/12/22 06:04:31;;;;;;;0.50;0.50;;;;;;;18.25;39.31;100177.66;16127495;19;129986;-54
2022/12/22 06:09:53;;;;;;;1.42;1.33;;;;;;;18.24;39.19;100195.38;16128631;19;129791;-53
2022/12/22 06:15:15;;;;;;;1.63;1.50;;;;;;;18.23;39.05;100199.22;16125096;19;129631;-54
2022/12/22 06:20:37;;;;;;;1.40;1.23;;;;;;;18.22;39.13;100211.41;16127277;19;129777;-56
2022/12/22 06:26:00;;;;;;;2.05;1.85;;;;;;;18.20;39.08;100225.53;16125427;19;130742;-56
2022/12/22 06:31:23;;;;;;;5.45;1.70;;;;;;;18.21;39.28;100248.53;16124000;19;129365;-54
2022/12/22 06:36:46;;;;;;;2.00;1.60;;;;;;;18.20;39.17;100257.91;16127743;19;129494;-54
2022/12/22 06:47:49;;;;;;;5.53;2.40;;;;;;;18.17;39.01;100275.03;16130172;19;129504;-57
2022/12/22 06:53:11;;;;;;;3.30;2.25;;;;;;;18.15;39.02;100278.91;16149036;19;130835;-58
2022/12/22 06:58:33;;;;;;;3.15;2.28;;;;;;;18.15;39.46;100280.84;16153138;19;130017;-57
2022/12/22 07:03:55;;;;;;;3.20;1.95;;;;;;;18.14;39.05;100304.09;16156494;19;129753;-58
2022/12/22 07:09:17;;;;;;;3.33;2.13;;;;;;;18.12;39.38;100307.09;16151941;19;129583;-58
2022/12/22 07:14:38;;;;;;;2.00;1.70;;;;;;;18.12;39.35;100320.94;16155049;19;129904;-59
2022/12/22 07:20:00;;;;;;;2.08;1.88;;;;;;;18.11;39.06;100333.09;16153420;19;129752;-59
2022/12/22 07:25:22;;;;;;;3.42;1.60;;;;;;;18.11;39.41;100335.88;16156946;19;129312;-59
2022/12/22 07:30:44;;;;;;;4.18;2.40;;;;;;;18.09;39.11;100340.81;16156669;19;129936;-58
2022/12/22 07:36:15;;;;;;;2.83;1.90;;;;;;;18.09;39.27;100349.13;16156912;19;129683;-59
2022/12/22 07:47:17;;;;;;;2.20;1.40;;;;;;;18.06;39.38;100368.19;16154943;19;129538;-60
2022/12/22 07:52:38;;;;;;;3.65;1.52;;;;;;;18.06;39.16;100385.66;16152410;19;129896;-59
2022/12/22 07:58:00;;;;;;;3.00;1.05;;;;;;;18.07;39.39;100403.06;16153159;19;129479;-60
2022/12/22 08:03:22;;;;;;;1.75;1.10;;;;;;;18.06;39.05;100413.31;16145714;19;129427;-60
2022/12/22 08:08:44;;;;;;;1.33;0.85;;;;;;;18.06;39.45;100418.00;16137888;19;129843;-60
2022/12/22 08:14:06;;;;;;;2.35;0.82;;;;;;;18.05;39.42;100428.25;16135104;19;129169;-60
2022/12/22 08:19:28;;;;;;;1.10;0.77;;;;;;;18.05;39.14;100455.94;16135246;19;129524;-59
2022/12/22 08:24:53;;;;;;;1.20;0.85;;;;;;;18.07;39.36;100484.19;16131694;19;132473;-60
2022/12/22 08:30:15;;;;;;;2.97;0.70;;;;;;;18.05;39.10;100503.00;16135465;19;129574;-59
2022/12/22 08:35:37;;;;;;;2.75;0.70;;;;;;;18.06;39.40;100523.19;16134400;19;131150;-59
2022/12/22 08:40:59;;;;;;;0.70;0.57;;;;;;;18.05;39.02;100527.91;16133340;19;130491;-59
2022/12/22 08:46:20;;;;;;;1.17;0.60;;;;;;;18.05;39.06;100547.28;16130631;19;130046;-60
2022/12/22 08:51:43;;;;;;;1.92;0.60;;;;;;;18.04;39.50;100545.59;16133398;19;129186;-60
2022/12/22 08:57:04;;;;;;;2.80;0.60;;;;;;;18.03;39.17;100548.63;16129533;19;129516;-60
2022/12/22 09:02:26;;;;;;;0.95;0.77;;;;;;;18.00;39.03;100531.44;16128750;19;129558;-59
2022/12/22 09:07:49;;;;;;;1.25;0.95;;;;;;;18.01;39.03;100546.09;16130939;19;129337;-59
2022/12/22 09:13:11;;;;;;;1.95;0.80;;;;;;;18.01;39.42;100543.31;16132260;19;130843;-59
2022/12/22 09:18:32;;;;;;;0.93;0.82;;;;;;;18.00;39.50;100550.81;16129694;19;129422;-59
2022/12/22 09:23:55;;;;;;;1.02;0.75;;;;;;;18.01;39.15;100554.41;16126679;19;133460;-59
2022/12/22 09:29:17;;;;;;;1.58;0.90;;;;;;;18.01;39.10;100571.00;16130413;19;129600;-59
2022/12/22 09:34:38;;;;;;;1.42;0.70;;;;;;;18.01;39.06;100590.38;16128942;19;129682;-59
2022/12/22 09:40:00;;;;;;;3.35;1.05;;;;;;;18.02;39.27;100594.00;16128169;19;129703;-59
2022/12/22 09:45:22;;;;;;;0.52;0.50;;;;;;;18.02;39.32;100610.63;16127802;19;128900;-58
2022/12/22 09:50:44;;;;;;;1.20;1.00;;;;;;;18.03;39.29;100606.75;16126667;19;129361;-59
2022/12/22 09:56:12;;;;;;;1.92;1.00;;;;;;;18.03;39.41;100612.28;16125535;19;129265;-59
2022/12/22 10:02:12;;;;;;;3.45;0.82;;;;;;;18.03;39.44;100613.13;16127344;19;129828;-58
2022/12/22 10:07:38;;;;;;;4.63;0.90;;;;;;;18.00;39.46;100613.63;16123028;19;131808;-58
2022/12/22 10:13:01;;;;;;;3.38;0.95;;;;;;;18.00;39.54;100614.47;16124281;19;129615;-59
2022/12/22 10:18:28;;;;;;;3.80;1.77;;;;;;;18.02;39.51;100614.22;16126143;19;129400;-59
2022/12/22 10:23:50;;;;;;;4.10;1.90;;;;;;;18.02;39.39;100624.44;16127267;19;129343;-59
2022/12/22 10:29:15;;;;;;;5.63;1.80;;;;;;;18.01;39.37;100637.44;16125786;19;130943;-58
2022/12/22 10:34:57;;;;;;;10.35;2.45;;;;;;;18.02;39.66;100649.38;16128552;19;129639;-59
2022/12/22 10:40:21;;;;;;;4.70;2.13;;;;;;;18.00;39.70;100647.69;16124112;19;129334;-59
2022/12/22 10:45:47;;;;;;;5.05;1.80;;;;;;;18.02;39.62;100641.88;16124650;19;129522;-59
2022/12/22 10:51:12;;;;;;;4.68;1.63;;;;;;;18.00;39.91;100646.81;16127959;19;129295;-59
2022/12/22 10:56:34;;;;;;;5.85;2.33;;;;;;;18.01;39.84;100648.50;16124041;19;131170;-59
2022/12/22 11:02:27;;;;;;;3.33;1.65;;;;;;;18.02;39.68;100644.66;16124297;19;129784;-59
2022/12/22 11:07:49;;;;;;;6.20;1.50;;;;;;;18.00;39.60;100652.38;16127518;19;129755;-59
2022/12/22 11:13:11;;;;;;;2.58;1.63;;;;;;;18.00;39.81;100649.59;16123387;19;128978;-59
2022/12/22 11:18:47;;;;;;;4.28;1.30;;;;;;;18.03;39.73;100657.41;16123626;19;129652;-59
2022/12/22 11:24:20;;;;;;;;;;;;;;;17.97;39.84;100650.94;16124525;19;129871;-59
2022/12/22 11:30:11;;;;;;;3.47;1.60;;;;;;;18.02;39.96;100657.66;16126744;19;129478;-59
2022/12/22 11:36:00;;;;;;;2.30;1.50;;;;;;;18.01;39.93;100648.50;16126161;19;129261;-59
2022/12/22 11:42:00;;;;;;;5.53;2.13;;;;;;;17.98;39.77;100644.31;16135771;19;130057;-59
2022/12/22 11:47:43;;;;;;;5.25;1.70;;;;;;;18.01;39.66;100626.38;16134425;19;129599;-59
2022/12/22 11:53:32;;;;;;;3.60;1.48;;;;;;;18.00;39.94;100617.25;16136881;19;130030;-59
2022/12/22 11:59:22;;;;;;;5.25;1.90;;;;;;;18.00;39.89;100605.31;16129434;19;130242;-60
2022/12/22 12:04:46;;;;;;;3.10;2.00;;;;;;;17.99;39.67;100606.41;16137109;19;131573;-60
2022/12/22 12:10:31;;;;;;;3.50;1.80;;;;;;;17.99;40.00;100603.63;16135913;19;129485;-60
2022/12/22 12:16:17;;;;;;;4.10;1.77;;;;;;;17.98;39.95;100594.50;16136440;19;130160;-60
2022/12/22 12:21:51;;;;;;;3.80;1.77;;;;;;;17.98;40.04;100588.97;16136359;19;129320;-60
2022/12/22 12:27:34;;;;;;;2.90;1.50;;;;;;;17.99;40.01;100584.25;16135474;19;129144;-59
2022/12/22 12:33:06;;;;;;;6.18;1.45;;;;;;;17.97;39.90;100581.75;16136046;19;130662;-59
2022/12/22 12:38:37;;;;;;;4.72;1.33;;;;;;;17.96;39.78;100571.75;16133162;19;129233;-60
2022/12/22 12:44:24;;;;;;;5.63;1.30;;;;;;;17.97;39.56;100572.63;16133795;19;129631;-60
2022/12/22 12:50:10;;;;;;;6.40;1.08;;;;;;;17.98;39.81;100560.44;16132528;19;130294;-60
2022/12/22 12:55:50;;;;;;;2.55;1.05;;;;;;;17.97;39.92;100564.31;16135824;19;129027;-59
2022/12/22 13:01:38;;;;;;;3.10;1.08;;;;;;;17.96;39.62;100563.47;16133259;19;129403;-60
2022/12/22 13:07:00;;;;;;;2.25;1.02;;;;;;;17.94;39.97;100553.75;16134037;19;129723;-60
2022/12/22 13:12:39;;;;;;;1.90;0.88;;;;;;;17.96;39.54;100546.03;16135292;19;129361;-60
2022/12/22 13:18:05;;;;;;;2.45;1.00;;;;;;;17.92;39.82;100540.13;16133742;19;129029;-60
2022/12/22 13:23:34;;;;;;;2.85;1.00;;;;;;;17.92;39.55;100542.06;16133376;19;130683;-60
2022/12/22 13:29:50;;;;;;;1.92;0.80;;;;;;;17.90;39.60;100531.28;16133967;19;129565;-61
2022/12/22 13:35:34;;;;;;;1.85;0.80;;;;;;;17.92;39.66;100517.16;16123932;19;129200;-60
2022/12/22 13:41:14;;;;;;;2.33;0.90;;;;;;;17.90;40.02;100502.75;16122290;19;130665;-60
2022/12/22 13:46:42;;;;;;;2.55;0.73;;;;;;;17.88;39.62;100507.69;16124768;19;129109;-60
2022/12/22 13:52:05;;;;;;;2.15;0.85;;;;;;;17.87;39.55;100494.94;16123917;19;129211;-60
2022/12/22 13:57:27;;;;;;;0.80;0.60;;;;;;;17.87;39.62;100476.41;16122761;19;129500;-60
2022/12/22 14:02:49;;;;;;;2.75;0.68;;;;;;;17.86;39.72;100469.19;16121926;19;129049;-59
2022/12/22 14:08:12;;;;;;;1.70;0.70;;;;;;;17.84;39.70;100472.22;16122992;19;129483;-60
2022/12/22 14:13:34;;;;;;;0.75;0.50;;;;;;;17.84;40.02;100465.84;16130785;19;129325;-59
2022/12/22 14:18:56;;;;;;;1.88;0.57;;;;;;;17.84;40.10;100465.84;16128942;19;129249;-60
2022/12/22 14:24:24;;;;;;;1.17;0.60;;;;;;;17.84;39.97;100458.41;16128207;19;130879;-59
2022/12/22 14:29:46;;;;;;;1.25;0.52;;;;;;;17.83;40.14;100451.19;16127135;19;129530;-60
2022/12/22 14:35:19;;;;;;;0.70;0.40;;;;;;;17.83;40.08;100437.34;16127884;19;130127;-59
2022/12/22 14:40:42;;;;;;;0.57;0.35;;;;;;;17.82;39.88;100443.97;16126766;19;128799;-60
2022/12/22 14:46:09;;;;;;;0.75;0.40;;;;;;;17.80;39.73;100435.06;16127923;19;130015;-60
2022/12/22 14:51:31;;;;;;;0.98;0.50;;;;;;;17.79;39.75;100430.63;16127152;19;128994;-60
2022/12/22 14:57:01;;;;;;;1.00;0.40;;;;;;;17.80;39.96;100435.06;16127630;19;130516;-61
2022/12/22 15:02:33;;;;;;;0.57;0.40;;;;;;;17.80;39.88;100426.78;16126076;19;129391;-60
2022/12/22 15:08:01;;;;;;;0.88;0.45;;;;;;;17.77;40.12;100418.97;16126008;19;129370;-59
2022/12/22 15:13:29;;;;;;;0.52;0.35;;;;;;;17.77;40.12;100416.22;16133117;19;131538;-59
2022/12/22 15:18:51;;;;;;;1.40;0.40;;;;;;;17.77;39.72;100409.84;16140473;19;129550;-60
2022/12/22 15:24:15;;;;;;;0.68;0.50;;;;;;;17.78;39.80;100401.28;16137454;19;129298;-60
2022/12/22 15:29:37;;;;;;;0.60;0.30;;;;;;;17.76;39.80;100386.88;16140735;19;129579;-59
2022/12/22 15:35:02;;;;;;;0.65;0.47;;;;;;;17.75;39.81;100387.94;16139645;19;134136;-60
2022/12/22 15:40:25;;;;;;;0.52;0.35;;;;;;;17.75;40.14;100390.72;16138563;19;129535;-60
2022/12/22 15:45:47;;;;;;;0.50;0.30;;;;;;;17.74;40.21;100377.97;16136956;19;129438;-60
2022/12/22 15:51:19;;;;;;;1.33;0.47;;;;;;;17.75;40.03;100371.34;16137835;19;129033;-60
2022/12/22 15:56:41;;;;;;;0.38;0.20;;;;;;;17.74;40.12;100372.44;16136608;19;129529;-59
2022/12/22 16:02:10;;;;;;;0.28;0.28;;;;;;;17.75;40.05;100362.22;16136700;19;129585;-59
2022/12/22 16:07:32;;;;;;;1.13;0.47;;;;;;;17.73;40.02;100365.22;16138096;19;129307;-60
2022/12/22 16:12:59;;;;;;;0.52;0.30;;;;;;;17.72;40.26;100355.28;16136655;19;133392;-60
2022/12/22 16:18:21;;;;;;;0.63;0.35;;;;;;;17.72;40.14;100352.53;16134114;19;129671;-60
2022/12/22 16:23:46;;;;;;;0.52;0.30;;;;;;;17.72;40.09;100335.06;16129964;19;129131;-60
2022/12/22 16:29:14;;;;;;;;;;;;;;;17.68;40.23;100324.50;16134017;19;130211;-60
2022/12/22 16:34:35;;;;;;;13.35;1.67;;;;;;;17.71;40.32;100325.94;16134773;19;131622;-61
2022/12/22 16:39:57;;;;;;;9.43;1.42;;;;;;;17.85;40.53;100318.91;16135677;19;129903;-61
2022/12/22 16:45:24;;;;;;;18.20;1.63;;;;;;;18.08;40.76;100317.03;16133672;19;130079;-60
2022/12/22 16:50:47;;;;;;;17.52;2.80;;;;;;;18.33;40.57;100312.91;16135563;19;129791;-60
2022/12/22 16:56:21;;;;;;;21.70;2.90;;;;;;;18.58;40.45;100308.75;16132373;19;128971;-60
2022/12/22 17:01:51;;;;;;;11.75;2.60;;;;;;;18.81;40.64;100295.69;16132220;19;131133;-61
2022/12/22 17:07:13;;;;;;;11.32;2.20;;;;;;;19.00;40.44;100296.94;16135811;19;129720;-60
2022/12/22 17:12:35;;;;;;;17.50;2.80;;;;;;;19.16;40.43;100302.63;16130973;19;129357;-60
2022/12/22 17:17:57;;;;;;;10.82;2.28;;;;;;;19.30;40.49;100286.38;16131456;19;129391;-60
2022/12/22 17:23:38;;;;;;;13.27;2.38;;;;;;;19.42;40.36;100289.81;16130739;19;129428;-60
2022/12/22 17:29:00;;;;;;;16.63;2.83;;;;;;;19.45;40.44;100280.09;16131545;19;129768;-60
2022/12/22 17:34:22;;;;;;;11.52;2.90;;;;;;;19.47;40.79;100294.53;16125763;19;129480;-60
2022/12/22 17:39:47;;;;;;;17.15;3.20;;;;;;;19.43;40.86;100283.16;16131078;19;129654;-61
2022/12/22 17:45:16;;;;;;;25.23;3.92;;;;;;;19.38;41.21;100275.63;16128410;19;129552;-61
2022/12/22 17:50:39;;;;;;;31.77;4.18;;;;;;;19.30;41.10;100276.16;16127629;19;130012;-59
2022/12/22 17:56:02;;;;;;;15.38;3.28;;;;;;;19.22;41.45;100274.72;16128450;19;129769;-59
2022/12/22 18:01:31;;;;;;;17.80;2.90;;;;;;;19.14;41.28;100266.00;16126246;19;130511;-59
2022/12/22 18:06:54;;;;;;;19.58;3.03;;;;;;;19.06;41.26;100261.78;16128441;19;130322;-60
2022/12/22 18:12:23;;;;;;;14.82;3.47;;;;;;;19.00;41.39;100260.09;16125291;19;130298;-60
2022/12/22 18:17:45;;;;;;;18.55;2.97;;;;;;;18.93;41.56;100249.22;16124056;19;130928;-59
2022/12/22 18:23:19;;;;;;;14.00;2.42;;;;;;;18.99;41.39;100256.47;16123674;19;130374;-59
2022/12/22 18:28:41;;;;;;;11.70;2.88;;;;;;;19.10;41.16;100259.31;16123975;19;130033;-60
2022/12/22 18:34:06;;;;;;;12.50;2.30;;;;;;;19.25;40.93;100255.88;16122796;19;129446;-60
2022/12/22 18:39:27;;;;;;;11.27;2.28;;;;;;;19.41;40.59;100251.25;16123355;19;129562;-60
2022/12/22 18:44:50;;;;;;;17.70;3.20;;;;;;;19.55;40.62;100255.22;16043078;19;130845;-60
2022/12/22 18:50:26;;;;;;;16.30;2.95;;;;;;;19.70;40.32;100271.09;16120645;19;129259;-60
2022/12/22 18:55:47;;;;;;;12.05;2.33;;;;;;;19.79;40.79;100271.44;16126531;19;129962;-59
2022/12/22 19:01:21;;;;;;;16.85;2.63;;;;;;;19.89;40.59;100277.03;16123189;19;130617;-60
2022/12/22 19:06:43;;;;;;;9.32;2.17;;;;;;;19.97;40.53;100276.50;16124735;19;129054;-60
2022/12/22 19:12:08;;;;;;;17.30;3.00;;;;;;;20.05;40.25;100268.81;16124997;19;130799;-60
2022/12/22 19:17:30;;;;;;;11.48;2.28;;;;;;;20.11;40.24;100281.56;16125565;19;130950;-60
2022/12/22 19:22:52;;;;;;;10.93;2.50;;;;;;;20.16;40.18;100281.59;16124509;19;129603;-61
2022/12/22 19:28:27;;;;;;;21.20;2.92;;;;;;;20.22;40.27;100276.91;16124216;19;133471;-60
2022/12/22 19:33:50;;;;;;;25.33;2.97;;;;;;;20.24;40.20;100256.06;16122106;19;128926;-60
2022/12/22 19:39:11;;;;;;;36.58;3.45;;;;;;;20.29;40.30;100261.66;16120912;19;129595;-60
2022/12/22 19:44:34;;;;;;;31.80;3.03;;;;;;;20.35;40.31;100258.88;16122217;19;129324;-61
2022/12/22 19:49:56;;;;;;;31.58;3.70;;;;;;;20.41;40.38;100263.34;16121913;19;130041;-59
2022/12/22 19:55:18;;;;;;;17.33;2.67;;;;;;;20.46;40.11;100260.56;16119849;19;130671;-60
2022/12/22 20:00:40;;;;;;;27.27;3.70;;;;;;;20.49;40.35;100262.78;16133875;19;129305;-55
2022/12/22 20:06:03;;;;;;;22.60;3.75;;;;;;;20.53;40.14;100263.06;16136425;19;129721;-60
2022/12/22 20:11:25;;;;;;;35.42;3.55;;;;;;;20.58;40.01;100261.13;16135317;19;130074;-58
2022/12/22 20:16:47;;;;;;;32.58;3.92;;;;;;;20.63;40.18;100268.63;16134041;19;129499;-59
2022/12/22 20:22:14;;;;;;;25.77;3.58;;;;;;;20.68;40.48;100265.88;16133048;19;129657;-59
2022/12/22 20:27:36;;;;;;;30.48;3.30;;;;;;;20.72;40.38;100264.22;16136893;19;129437;-59
2022/12/22 20:32:58;;;;;;;23.60;3.33;;;;;;;20.73;40.33;100262.25;16135358;19;129603;-50
2022/12/22 20:38:31;;;;;;;22.77;3.40;;;;;;;20.72;40.39;100260.59;16133139;19;131717;-59
2022/12/22 20:43:53;;;;;;;26.63;4.40;;;;;;;20.69;40.27;100252.81;16131266;19;129436;-54
2022/12/22 20:49:18;;;;;;;17.83;2.72;;;;;;;20.70;40.62;100263.66;16133196;19;131118;-56
2022/12/22 20:54:39;;;;;;;34.60;3.40;;;;;;;20.72;40.78;100260.59;16132860;19;134288;-57
2022/12/22 21:00:01;;;;;;;19.33;2.88;;;;;;;20.77;40.72;100263.41;16129727;19;129335;-55
2022/12/22 21:05:23;;;;;;;17.92;2.78;;;;;;;20.81;40.24;100263.69;16128683;19;129663;-58
2022/12/22 21:10:46;;;;;;;18.75;2.58;;;;;;;20.81;40.20;100261.72;16129180;19;129676;-55
2022/12/22 21:16:15;;;;;;;9.32;1.95;;;;;;;20.80;40.56;100256.47;16121297;19;130560;-58
2022/12/22 21:21:37;;;;;;;35.72;3.90;;;;;;;20.71;40.29;100242.25;16125829;19;130375;-61
2022/12/22 21:26:58;;;;;;;28.67;3.10;;;;;;;20.62;40.81;100243.91;16126383;19;130581;-58
2022/12/22 21:32:20;;;;;;;28.35;4.43;;;;;;;20.51;40.36;100255.03;16125261;19;129876;-58
2022/12/22 21:37:45;;;;;;;30.00;4.82;;;;;;;20.37;40.77;100249.16;16130691;19;130825;-59
2022/12/22 21:43:10;;;;;;;27.98;3.70;;;;;;;20.24;40.69;100250.50;16124885;19;129735;-59
2022/12/22 21:48:33;;;;;;;27.95;4.25;;;;;;;20.14;40.54;100281.03;16128008;19;129482;-58
2022/12/22 21:53:55;;;;;;;28.15;3.45;;;;;;;20.05;40.98;100271.56;16129168;19;129373;-59
2022/12/22 21:59:17;;;;;;;26.45;3.42;;;;;;;19.96;40.92;100277.59;16125379;19;130267;-59
2022/12/22 22:04:39;;;;;;;17.77;3.00;;;;;;;19.88;40.64;100282.84;16127985;19;129795;-59
2022/12/22 22:10:00;;;;;;;15.27;2.53;;;;;;;19.79;40.72;100288.09;16122973;19;129163;-59
2022/12/22 22:15:24;;;;;;;19.63;2.65;;;;;;;19.73;41.16;100294.69;16123051;19;129621;-59
2022/12/22 22:20:46;;;;;;;11.00;2.35;;;;;;;19.66;40.72;100301.34;16122907;19;129699;-59
2022/12/22 22:26:09;;;;;;;14.90;2.58;;;;;;;19.61;40.79;100287.44;16123196;19;129473;-59
2022/12/22 22:31:31;;;;;;;12.68;2.25;;;;;;;19.54;40.93;100289.63;16123553;19;129500;-59
2022/12/22 22:36:53;;;;;;;15.07;2.17;;;;;;;19.48;41.12;100285.13;16125244;19;130482;-59
2022/12/22 22:42:15;;;;;;;13.07;1.73;;;;;;;19.44;40.92;100270.13;16124676;19;130889;-59
2022/12/22 22:47:36;;;;;;;13.38;2.83;;;;;;;19.37;40.86;100279.50;16121948;19;129569;-59
2022/12/22 22:52:59;;;;;;;16.63;2.10;;;;;;;19.34;40.82;100282.00;16121092;19;130212;-59
2022/12/22 22:58:20;;;;;;;7.40;1.45;;;;;;;19.29;40.79;100288.34;16121801;19;130720;-59
2022/12/22 23:03:42;;;;;;;11.48;1.70;;;;;;;19.22;41.22;100302.44;16119207;19;129782;-59
2022/12/22 23:09:04;;;;;;;9.73;1.45;;;;;;;19.19;41.04;100285.47;16123922;19;130337;-59
2022/12/22 23:14:26;;;;;;;10.10;1.90;;;;;;;19.15;41.28;100289.88;16118267;19;129406;-59
2022/12/22 23:19:48;;;;;;;9.02;1.65;;;;;;;19.10;40.90;100298.13;16109472;19;130743;-59
2022/12/22 23:25:09;;;;;;;9.88;1.40;;;;;;;19.05;41.27;100297.00;16121539;19;128927;-60
2022/12/22 23:30:31;;;;;;;10.95;1.52;;;;;;;19.01;41.27;100303.34;16117517;19;130317;-60
2022/12/22 23:35:53;;;;;;;9.95;1.90;;;;;;;18.98;41.43;100301.09;16130437;19;130352;-59
2022/12/22 23:41:15;;;;;;;7.15;1.58;;;;;;;18.94;41.04;100309.09;16132675;19;130612;-59
2022/12/22 23:46:36;;;;;;;5.00;1.38;;;;;;;18.90;41.45;100302.41;16133623;19;129448;-59
2022/12/22 23:51:58;;;;;;;4.22;1.45;;;;;;;18.87;41.22;100300.16;16135146;19;129256;-59
2022/12/22 23:57:20;;;;;;;6.25;1.48;;;;;;;18.85;41.15;100310.66;16135065;19;129888;-59
